Latest  Newer  Older  Last 2 hours slideshow  Last 24 hours slideshow  Refresh every 5 minutes 
Current image  Latest image  Rain/snow radar  Cloud coverage sat images 

All time is UTC (add 2 hours to UTC in wintertime, 3 hours to UTC in DST for Latvia local time)

2022/06/29 16:50 EVRA 291650Z 07005KT 020V100 9999 FEW040CB 24/19 Q1016 NOSIG
2022/06/29 16:50 EVLA 291650Z AUTO 33004KT 300V010 9999 FEW030/// BKN047/// 22/20 Q1016
2022/06/29 16:50 EVVA 291650Z AUTO 06004KT CAVOK 23/21 Q1016
2022/06/29 16:50 EYKA 291650Z 04008KT 350V070 9999 VCTS SCT044CB 24/18 Q1015
2022/06/29 16:50 EYPA 291650Z 27003KT 190V360 9999 FEW033 22/19 Q1016
2022/06/29 16:50 EYSA 291650Z 04005KT 360V080 9999 FEW034 BKN046 23/20 Q1016 NOSIG
2022/06/29 16:50 EYVI 291650Z 19003KT 150V230 9999 TS VCSH BKN043CB 21/19 Q1016 TEMPO VRB30KT 1500 TSRA BKN015CB

2022/06/29 16:50 EEKE 291650Z AUTO 14003KT 110V180 9999NDV NSC 25/19 Q1016
2022/06/29 16:50 EEPU 291650Z AUTO 08005KT 040V130 9999 NCD 26/18 Q1017
2022/06/29 16:50 EETN 291650Z 36004KT 9999 FEW032CB 26/20 Q1017 TEMPO 3000 SHRA
2022/06/29 16:50 EETU 291650Z AUTO 18005KT 9999 NCD 25/19 Q1018
   RIGA AIRPORT     EVRA               56 55N  023 58E   10   X     T          6 LV
   LIEPAJA INTL     EVLA        26406  56 31N  021 06E    4   X                8 LV
   VENTPILS         EVVA               57 21N  021 33E    6   X                8 LV
   KAUNAS           EYKA               54 54N  023 55E   77   X     T          6 LT
   PALANGA INTL     EYPA               55 55N  021 03E   10   X                6 LT
   SIAULIAI INTL    EYSA               55 54N  023 24E  135   X     T          6 LT
   VILNIUS INTL     EYVI        26730  54 38N  025 17E  197   X     T          6 LT
   KARDLA           EEKA        26116  58 59N  022 50E    4   X                8 EE
   KURESSAARE       EEKE               58 14N  022 31E    4   X                8 EE
   PARNU            EEPU               58 25N  024 28E   14   X                8 EE
   TALLINN          EETN        26038  59 24N  024 49E   40   X     T          8 EE
   TARTU            EETU               58 19N  026 41E   67   X                8 EE